sensor_id;sensor_type;location;lat;lon;timestamp;pressure;altitude;pressure_sealevel;temperature;humidity
72612;BME280;60655;52.182;4.474;2023-02-28T00:01:40;103285.38;;;4.55;81.08
72612;BME280;60655;52.182;4.474;2023-02-28T00:03:41;103281.41;;;4.49;81.52
72612;BME280;60655;52.182;4.474;2023-02-28T00:05:42;103286.72;;;4.60;81.96
72612;BME280;60655;52.182;4.474;2023-02-28T00:07:45;103290.88;;;4.63;81.80
72612;BME280;60655;52.182;4.474;2023-02-28T00:09:46;103295.09;;;4.77;81.61
72612;BME280;60655;52.182;4.474;2023-02-28T00:11:47;103292.59;;;4.86;81.30
72612;BME280;60655;52.182;4.474;2023-02-28T00:13:49;103289.34;;;4.71;81.60
72612;BME280;60655;52.182;4.474;2023-02-28T00:15:59;103297.72;;;4.77;81.58
72612;BME280;60655;52.182;4.474;2023-02-28T00:18:01;103303.50;;;4.82;80.96
72612;BME280;60655;52.182;4.474;2023-02-28T00:20:04;103291.28;;;4.81;81.92
72612;BME280;60655;52.182;4.474;2023-02-28T00:22:08;103301.81;;;5.03;82.24
72612;BME280;60655;52.182;4.474;2023-02-28T00:24:09;103303.75;;;4.90;81.26
72612;BME280;60655;52.182;4.474;2023-02-28T00:26:10;103298.94;;;4.84;81.74
72612;BME280;60655;52.182;4.474;2023-02-28T00:28:11;103293.66;;;4.95;83.14
72612;BME280;60655;52.182;4.474;2023-02-28T00:30:15;103294.75;;;5.03;81.82
72612;BME280;60655;52.182;4.474;2023-02-28T00:32:16;103296.19;;;4.96;81.29
72612;BME280;60655;52.182;4.474;2023-02-28T00:34:18;103297.03;;;5.08;81.35
72612;BME280;60655;52.182;4.474;2023-02-28T00:36:19;103292.25;;;5.13;81.52
72612;BME280;60655;52.182;4.474;2023-02-28T00:38:20;103295.72;;;5.14;80.87
72612;BME280;60655;52.182;4.474;2023-02-28T00:40:21;103307.59;;;5.08;81.27
72612;BME280;60655;52.182;4.474;2023-02-28T00:42:23;103306.28;;;5.14;81.50
72612;BME280;60655;52.182;4.474;2023-02-28T00:44:24;103301.84;;;5.14;80.85
72612;BME280;60655;52.182;4.474;2023-02-28T00:46:25;103300.03;;;5.26;81.34
72612;BME280;60655;52.182;4.474;2023-02-28T00:48:26;103299.81;;;5.18;80.88
72612;BME280;60655;52.182;4.474;2023-02-28T00:50:27;103293.44;;;5.20;80.98
72612;BME280;60655;52.182;4.474;2023-02-28T00:52:28;103293.19;;;5.23;81.29
72612;BME280;60655;52.182;4.474;2023-02-28T00:54:29;103292.84;;;5.28;81.33
72612;BME280;60655;52.182;4.474;2023-02-28T00:56:30;103292.84;;;5.17;81.25
72612;BME280;60655;52.182;4.474;2023-02-28T00:58:31;103293.44;;;5.31;81.66
72612;BME280;60655;52.182;4.474;2023-02-28T01:00:31;103293.56;;;5.30;81.76
72612;BME280;60655;52.182;4.474;2023-02-28T01:02:32;103300.50;;;5.42;81.30
72612;BME280;60655;52.182;4.474;2023-02-28T01:04:34;103287.19;;;5.43;81.45
72612;BME280;60655;52.182;4.474;2023-02-28T01:06:35;103278.81;;;5.38;81.42
72612;BME280;60655;52.182;4.474;2023-02-28T01:08:36;103295.59;;;5.37;81.11
72612;BME280;60655;52.182;4.474;2023-02-28T01:10:37;103294.88;;;5.35;81.10
72612;BME280;60655;52.182;4.474;2023-02-28T01:12:38;103294.63;;;5.38;80.86
72612;BME280;60655;52.182;4.474;2023-02-28T01:14:40;103290.56;;;5.34;80.76
72612;BME280;60655;52.182;4.474;2023-02-28T01:16:41;103302.06;;;5.45;81.64
72612;BME280;60655;52.182;4.474;2023-02-28T01:18:42;103291.03;;;5.39;81.52
72612;BME280;60655;52.182;4.474;2023-02-28T01:20:43;103298.00;;;5.40;81.80
72612;BME280;60655;52.182;4.474;2023-02-28T01:22:45;103291.84;;;5.51;81.90
72612;BME280;60655;52.182;4.474;2023-02-28T01:24:46;103288.88;;;5.45;81.71
72612;BME280;60655;52.182;4.474;2023-02-28T01:26:47;103287.09;;;5.45;82.15
72612;BME280;60655;52.182;4.474;2023-02-28T01:28:50;103290.53;;;5.57;81.70
72612;BME280;60655;52.182;4.474;2023-02-28T01:30:51;103288.38;;;5.51;80.97
72612;BME280;60655;52.182;4.474;2023-02-28T01:32:52;103289.31;;;5.50;80.76
72612;BME280;60655;52.182;4.474;2023-02-28T01:34:54;103285.72;;;5.62;81.38
72612;BME280;60655;52.182;4.474;2023-02-28T01:36:55;103287.81;;;5.36;81.12
72612;BME280;60655;52.182;4.474;2023-02-28T01:38:56;103287.91;;;5.46;81.38
72612;BME280;60655;52.182;4.474;2023-02-28T01:40:57;103275.69;;;5.45;81.27
72612;BME280;60655;52.182;4.474;2023-02-28T01:42:58;103283.81;;;5.53;81.30
72612;BME280;60655;52.182;4.474;2023-02-28T01:45:28;103285.63;;;5.52;81.78
72612;BME280;60655;52.182;4.474;2023-02-28T01:47:38;103288.88;;;5.45;81.92
72612;BME280;60655;52.182;4.474;2023-02-28T01:49:42;103288.50;;;5.49;81.66
72612;BME280;60655;52.182;4.474;2023-02-28T01:51:54;103282.38;;;5.49;82.00
72612;BME280;60655;52.182;4.474;2023-02-28T01:54:05;103269.78;;;5.52;81.20
72612;BME280;60655;52.182;4.474;2023-02-28T01:56:18;103261.88;;;5.63;82.15
72612;BME280;60655;52.182;4.474;2023-02-28T01:58:22;103257.78;;;5.70;81.33
72612;BME280;60655;52.182;4.474;2023-02-28T02:00:26;103252.16;;;5.64;81.78
72612;BME280;60655;52.182;4.474;2023-02-28T02:02:30;103257.44;;;5.64;81.69
72612;BME280;60655;52.182;4.474;2023-02-28T02:04:49;103266.03;;;5.77;81.67
72612;BME280;60655;52.182;4.474;2023-02-28T02:06:50;103266.78;;;5.57;81.13
72612;BME280;60655;52.182;4.474;2023-02-28T02:08:51;103258.88;;;5.68;81.79
72612;BME280;60655;52.182;4.474;2023-02-28T02:10:57;103258.88;;;5.68;81.36
72612;BME280;60655;52.182;4.474;2023-02-28T02:18:04;103259.78;;;5.89;82.06
72612;BME280;60655;52.182;4.474;2023-02-28T02:24:59;103255.72;;;5.74;81.30
72612;BME280;60655;52.182;4.474;2023-02-28T02:27:19;103255.56;;;5.87;81.41
72612;BME280;60655;52.182;4.474;2023-02-28T02:29:45;103257.13;;;5.78;81.34
72612;BME280;60655;52.182;4.474;2023-02-28T02:37:24;103245.00;;;5.87;81.46
72612;BME280;60655;52.182;4.474;2023-02-28T02:39:44;103239.66;;;5.77;81.45
72612;BME280;60655;52.182;4.474;2023-02-28T02:41:53;103243.50;;;5.73;81.79
72612;BME280;60655;52.182;4.474;2023-02-28T02:44:22;103242.97;;;5.79;81.13
72612;BME280;60655;52.182;4.474;2023-02-28T02:46:37;103237.28;;;5.74;81.84
72612;BME280;60655;52.182;4.474;2023-02-28T02:48:40;103242.31;;;5.77;81.76
72612;BME280;60655;52.182;4.474;2023-02-28T02:50:49;103247.72;;;5.64;82.36
72612;BME280;60655;52.182;4.474;2023-02-28T02:52:55;103229.16;;;5.66;81.85
72612;BME280;60655;52.182;4.474;2023-02-28T02:54:58;103247.63;;;5.87;81.49
72612;BME280;60655;52.182;4.474;2023-02-28T02:57:04;103246.34;;;5.81;81.24
72612;BME280;60655;52.182;4.474;2023-02-28T02:59:09;103245.13;;;5.85;81.30
72612;BME280;60655;52.182;4.474;2023-02-28T03:01:15;103240.94;;;5.83;81.04
72612;BME280;60655;52.182;4.474;2023-02-28T03:03:26;103249.69;;;5.83;81.19
72612;BME280;60655;52.182;4.474;2023-02-28T03:05:50;103236.25;;;5.86;82.01
72612;BME280;60655;52.182;4.474;2023-02-28T03:07:51;103224.66;;;5.77;81.31
72612;BME280;60655;52.182;4.474;2023-02-28T03:09:54;103236.03;;;5.89;80.99
72612;BME280;60655;52.182;4.474;2023-02-28T03:11:56;103239.97;;;5.95;81.46
72612;BME280;60655;52.182;4.474;2023-02-28T03:16:59;103254.25;;;5.81;80.66
72612;BME280;60655;52.182;4.474;2023-02-28T03:25:45;103240.88;;;5.73;82.49
72612;BME280;60655;52.182;4.474;2023-02-28T03:30:15;103240.03;;;5.72;81.58
72612;BME280;60655;52.182;4.474;2023-02-28T03:32:33;103239.38;;;5.80;81.70
72612;BME280;60655;52.182;4.474;2023-02-28T03:34:39;103225.47;;;5.78;81.59
72612;BME280;60655;52.182;4.474;2023-02-28T03:36:47;103229.47;;;5.72;81.63
72612;BME280;60655;52.182;4.474;2023-02-28T03:39:05;103231.59;;;5.78;82.01
72612;BME280;60655;52.182;4.474;2023-02-28T03:41:15;103238.19;;;5.84;81.09
72612;BME280;60655;52.182;4.474;2023-02-28T03:43:23;103238.28;;;5.94;81.59
72612;BME280;60655;52.182;4.474;2023-02-28T03:45:28;103237.09;;;5.98;81.64
72612;BME280;60655;52.182;4.474;2023-02-28T03:47:35;103235.28;;;5.98;81.51
72612;BME280;60655;52.182;4.474;2023-02-28T03:49:53;103222.34;;;5.84;80.81
72612;BME280;60655;52.182;4.474;2023-02-28T03:51:58;103237.59;;;5.92;81.48
72612;BME280;60655;52.182;4.474;2023-02-28T03:54:07;103217.06;;;5.84;81.31
72612;BME280;60655;52.182;4.474;2023-02-28T03:56:51;103228.97;;;5.90;81.36
72612;BME280;60655;52.182;4.474;2023-02-28T03:59:02;103237.34;;;5.95;81.39
72612;BME280;60655;52.182;4.474;2023-02-28T04:01:21;103234.56;;;5.96;81.36
72612;BME280;60655;52.182;4.474;2023-02-28T04:03:23;103235.41;;;5.86;81.59
72612;BME280;60655;52.182;4.474;2023-02-28T04:05:25;103228.13;;;5.78;81.86
72612;BME280;60655;52.182;4.474;2023-02-28T04:07:29;103229.19;;;5.87;81.28
72612;BME280;60655;52.182;4.474;2023-02-28T04:09:38;103241.19;;;5.91;81.53
72612;BME280;60655;52.182;4.474;2023-02-28T04:11:41;103241.66;;;5.96;81.67
72612;BME280;60655;52.182;4.474;2023-02-28T04:13:42;103235.47;;;6.06;81.56
72612;BME280;60655;52.182;4.474;2023-02-28T04:15:43;103251.00;;;6.00;81.19
72612;BME280;60655;52.182;4.474;2023-02-28T04:17:44;103246.94;;;5.96;81.46
72612;BME280;60655;52.182;4.474;2023-02-28T04:19:45;103250.28;;;5.87;81.92
72612;BME280;60655;52.182;4.474;2023-02-28T04:21:49;103249.09;;;5.91;80.74
72612;BME280;60655;52.182;4.474;2023-02-28T04:23:50;103254.38;;;5.91;81.50
72612;BME280;60655;52.182;4.474;2023-02-28T04:25:55;103232.91;;;5.84;81.18
72612;BME280;60655;52.182;4.474;2023-02-28T04:27:56;103243.44;;;5.95;80.92
72612;BME280;60655;52.182;4.474;2023-02-28T04:29:57;103251.38;;;5.84;80.99
72612;BME280;60655;52.182;4.474;2023-02-28T04:31:58;103236.13;;;5.88;81.22
72612;BME280;60655;52.182;4.474;2023-02-28T04:34:00;103228.00;;;5.91;80.67
72612;BME280;60655;52.182;4.474;2023-02-28T04:36:06;103229.06;;;5.88;81.16
72612;BME280;60655;52.182;4.474;2023-02-28T04:38:08;103245.06;;;5.75;80.85
72612;BME280;60655;52.182;4.474;2023-02-28T04:40:10;103244.66;;;5.80;81.20
72612;BME280;60655;52.182;4.474;2023-02-28T04:42:12;103247.22;;;5.70;80.91
72612;BME280;60655;52.182;4.474;2023-02-28T04:44:13;103243.63;;;5.71;81.46
72612;BME280;60655;52.182;4.474;2023-02-28T04:46:15;103249.50;;;5.75;81.55
72612;BME280;60655;52.182;4.474;2023-02-28T04:48:16;103251.25;;;5.86;81.27
72612;BME280;60655;52.182;4.474;2023-02-28T04:50:17;103244.03;;;5.56;82.19
72612;BME280;60655;52.182;4.474;2023-02-28T04:52:17;103239.69;;;5.66;82.02
72612;BME280;60655;52.182;4.474;2023-02-28T04:54:19;103237.66;;;5.69;82.22
72612;BME280;60655;52.182;4.474;2023-02-28T04:56:21;103240.53;;;5.55;82.67
72612;BME280;60655;52.182;4.474;2023-02-28T04:58:22;103240.91;;;5.62;82.64
72612;BME280;60655;52.182;4.474;2023-02-28T05:00:24;103244.09;;;5.76;82.25
72612;BME280;60655;52.182;4.474;2023-02-28T05:02:25;103245.75;;;5.89;81.88
72612;BME280;60655;52.182;4.474;2023-02-28T05:04:26;103242.97;;;5.90;81.63
72612;BME280;60655;52.182;4.474;2023-02-28T05:06:29;103219.00;;;5.93;81.92
72612;BME280;60655;52.182;4.474;2023-02-28T05:08:30;103237.22;;;5.96;81.51
72612;BME280;60655;52.182;4.474;2023-02-28T05:10:32;103247.25;;;6.02;81.63
72612;BME280;60655;52.182;4.474;2023-02-28T05:12:33;103237.47;;;5.93;81.60
72612;BME280;60655;52.182;4.474;2023-02-28T05:14:34;103235.06;;;5.90;81.99
72612;BME280;60655;52.182;4.474;2023-02-28T05:16:34;103239.38;;;5.80;81.48
72612;BME280;60655;52.182;4.474;2023-02-28T05:18:36;103240.22;;;5.92;81.45
72612;BME280;60655;52.182;4.474;2023-02-28T05:20:37;103246.22;;;5.83;81.53
72612;BME280;60655;52.182;4.474;2023-02-28T05:22:39;103239.38;;;5.80;81.20
72612;BME280;60655;52.182;4.474;2023-02-28T05:24:40;103250.06;;;5.90;81.02
72612;BME280;60655;52.182;4.474;2023-02-28T05:26:43;103240.69;;;5.97;80.66
72612;BME280;60655;52.182;4.474;2023-02-28T05:28:44;103238.28;;;5.94;81.11
72612;BME280;60655;52.182;4.474;2023-02-28T05:30:45;103239.59;;;5.88;80.97
72612;BME280;60655;52.182;4.474;2023-02-28T05:32:49;103245.63;;;5.90;80.96
72612;BME280;60655;52.182;4.474;2023-02-28T05:34:50;103245.84;;;5.87;80.56
72612;BME280;60655;52.182;4.474;2023-02-28T05:36:51;103248.84;;;5.94;79.91
72612;BME280;60655;52.182;4.474;2023-02-28T05:38:52;103256.38;;;5.87;80.28
72612;BME280;60655;52.182;4.474;2023-02-28T05:40:53;103240.41;;;5.68;79.89
72612;BME280;60655;52.182;4.474;2023-02-28T05:42:54;103251.66;;;5.70;80.05
72612;BME280;60655;52.182;4.474;2023-02-28T05:44:55;103251.25;;;5.86;79.99
72612;BME280;60655;52.182;4.474;2023-02-28T05:46:56;103244.41;;;5.83;79.73
72612;BME280;60655;52.182;4.474;2023-02-28T05:48:57;103253.41;;;5.81;79.89
72612;BME280;60655;52.182;4.474;2023-02-28T05:51:01;103253.88;;;5.86;79.82
72612;BME280;60655;52.182;4.474;2023-02-28T05:53:03;103244.53;;;5.93;79.32
72612;BME280;60655;52.182;4.474;2023-02-28T05:55:04;103250.66;;;5.93;79.20
72612;BME280;60655;52.182;4.474;2023-02-28T05:57:05;103242.50;;;5.96;78.84
72612;BME280;60655;52.182;4.474;2023-02-28T05:59:06;103245.84;;;5.98;79.01
72612;BME280;60655;52.182;4.474;2023-02-28T06:03:27;103257.81;;;6.02;78.14
72612;BME280;60655;52.182;4.474;2023-02-28T06:05:28;103258.78;;;6.01;77.49
72612;BME280;60655;52.182;4.474;2023-02-28T06:07:29;103264.44;;;5.97;78.16
72612;BME280;60655;52.182;4.474;2023-02-28T06:09:30;103239.84;;;5.96;78.07
72612;BME280;60655;52.182;4.474;2023-02-28T06:11:32;103256.16;;;5.79;78.37
72612;BME280;60655;52.182;4.474;2023-02-28T06:13:34;103248.59;;;5.86;78.12
72612;BME280;60655;52.182;4.474;2023-02-28T06:15:35;103240.34;;;5.90;77.94
72612;BME280;60655;52.182;4.474;2023-02-28T06:17:36;103244.66;;;5.91;77.81
72612;BME280;60655;52.182;4.474;2023-02-28T06:19:37;103249.69;;;5.94;78.20
72612;BME280;60655;52.182;4.474;2023-02-28T06:21:39;103244.78;;;5.90;78.46
72612;BME280;60655;52.182;4.474;2023-02-28T06:23:40;103253.75;;;5.87;78.34
72612;BME280;60655;52.182;4.474;2023-02-28T06:25:44;103256.88;;;5.92;78.44
72612;BME280;60655;52.182;4.474;2023-02-28T06:27:44;103252.69;;;5.90;78.77
72612;BME280;60655;52.182;4.474;2023-02-28T06:29:45;103250.59;;;5.72;78.85
72612;BME280;60655;52.182;4.474;2023-02-28T06:31:47;103251.72;;;5.80;79.21
72612;BME280;60655;52.182;4.474;2023-02-28T06:33:48;103254.84;;;5.85;78.66
72612;BME280;60655;52.182;4.474;2023-02-28T06:35:50;103246.69;;;5.88;79.42
72612;BME280;60655;52.182;4.474;2023-02-28T06:37:51;103256.63;;;5.84;78.89
72612;BME280;60655;52.182;4.474;2023-02-28T06:39:54;103260.03;;;5.75;79.37
72612;BME280;60655;52.182;4.474;2023-02-28T06:41:56;103256.16;;;5.79;78.92
72612;BME280;60655;52.182;4.474;2023-02-28T06:43:57;103260.75;;;5.77;79.40
72612;BME280;60655;52.182;4.474;2023-02-28T06:46:00;103261.78;;;5.86;79.22
72612;BME280;60655;52.182;4.474;2023-02-28T06:48:01;103260.72;;;5.88;79.67
72612;BME280;60655;52.182;4.474;2023-02-28T06:50:03;103266.72;;;5.79;78.85
72612;BME280;60655;52.182;4.474;2023-02-28T06:52:04;103264.91;;;5.80;79.32
72612;BME280;60655;52.182;4.474;2023-02-28T06:54:05;103256.25;;;5.57;79.39
72612;BME280;60655;52.182;4.474;2023-02-28T06:56:11;103276.72;;;5.64;79.99
72612;BME280;60655;52.182;4.474;2023-02-28T06:58:13;103271.34;;;5.66;80.28
72612;BME280;60655;52.182;4.474;2023-02-28T07:00:19;103275.28;;;5.60;80.45
72612;BME280;60655;52.182;4.474;2023-02-28T07:02:20;103273.75;;;5.58;80.80
72612;BME280;60655;52.182;4.474;2023-02-28T07:04:21;103269.06;;;5.61;81.58
72612;BME280;60655;52.182;4.474;2023-02-28T07:06:23;103282.59;;;5.57;81.75
72612;BME280;60655;52.182;4.474;2023-02-28T07:08:25;103263.84;;;5.39;81.43
72612;BME280;60655;52.182;4.474;2023-02-28T07:10:27;103287.53;;;5.50;82.13
72612;BME280;60655;52.182;4.474;2023-02-28T07:12:28;103287.31;;;5.42;82.66
72612;BME280;60655;52.182;4.474;2023-02-28T07:14:29;103294.16;;;5.45;83.09
72612;BME280;60655;52.182;4.474;2023-02-28T07:16:30;103291.88;;;5.29;82.98
72612;BME280;60655;52.182;4.474;2023-02-28T07:18:31;103294.88;;;5.13;83.53
72612;BME280;60655;52.182;4.474;2023-02-28T07:20:32;103298.84;;;5.19;83.50
72612;BME280;60655;52.182;4.474;2023-02-28T07:22:33;103298.13;;;5.17;83.70
72612;BME280;60655;52.182;4.474;2023-02-28T07:24:34;103297.19;;;5.18;84.08
72612;BME280;60655;52.182;4.474;2023-02-28T07:26:35;103301.13;;;5.12;83.81
72612;BME280;60655;52.182;4.474;2023-02-28T07:28:36;103309.97;;;5.22;84.21
72612;BME280;60655;52.182;4.474;2023-02-28T07:30:39;103310.44;;;5.05;84.17
72612;BME280;60655;52.182;4.474;2023-02-28T07:32:40;103308.63;;;4.94;83.76
72612;BME280;60655;52.182;4.474;2023-02-28T07:34:41;103311.66;;;4.90;84.95
72612;BME280;60655;52.182;4.474;2023-02-28T07:36:42;103311.03;;;4.97;84.46
72612;BME280;60655;52.182;4.474;2023-02-28T07:38:44;103302.28;;;4.97;84.81
72612;BME280;60655;52.182;4.474;2023-02-28T07:40:47;103303.75;;;4.90;83.42
72612;BME280;60655;52.182;4.474;2023-02-28T07:42:48;103302.03;;;4.78;83.11
72612;BME280;60655;52.182;4.474;2023-02-28T07:44:49;103315.25;;;4.89;83.78
72612;BME280;60655;52.182;4.474;2023-02-28T07:46:52;103313.66;;;4.75;83.80
72612;BME280;60655;52.182;4.474;2023-02-28T07:48:53;103314.75;;;4.84;83.71
72612;BME280;60655;52.182;4.474;2023-02-28T07:50:56;103310.41;;;4.60;83.88
72612;BME280;60655;52.182;4.474;2023-02-28T07:52:58;103295.34;;;4.73;83.55
72612;BME280;60655;52.182;4.474;2023-02-28T07:54:59;103289.41;;;4.48;84.18
72612;BME280;60655;52.182;4.474;2023-02-28T07:57:00;103291.97;;;4.60;84.08
72612;BME280;60655;52.182;4.474;2023-02-28T07:59:01;103311.13;;;4.73;84.86
72612;BME280;60655;52.182;4.474;2023-02-28T08:01:06;103307.03;;;4.58;84.62
72612;BME280;60655;52.182;4.474;2023-02-28T08:03:11;103309.78;;;4.57;84.16
72612;BME280;60655;52.182;4.474;2023-02-28T08:05:13;103294.69;;;4.48;83.87
72612;BME280;60655;52.182;4.474;2023-02-28T08:07:14;103313.50;;;4.54;83.74
72612;BME280;60655;52.182;4.474;2023-02-28T08:09:16;103318.31;;;4.36;85.13
72612;BME280;60655;52.182;4.474;2023-02-28T08:11:17;103313.84;;;4.50;84.87
72612;BME280;60655;52.182;4.474;2023-02-28T08:13:18;103318.41;;;4.59;85.14
72612;BME280;60655;52.182;4.474;2023-02-28T08:15:19;103319.47;;;4.21;85.28
72612;BME280;60655;52.182;4.474;2023-02-28T08:17:20;103318.75;;;4.54;85.39
72612;BME280;60655;52.182;4.474;2023-02-28T08:19:21;103302.91;;;4.32;84.96
72612;BME280;60655;52.182;4.474;2023-02-28T08:21:22;103318.03;;;4.52;85.28
72612;BME280;60655;52.182;4.474;2023-02-28T08:23:23;103323.59;;;4.36;84.75
72612;BME280;60655;52.182;4.474;2023-02-28T08:25:24;103324.41;;;4.37;85.22
72612;BME280;60655;52.182;4.474;2023-02-28T08:27:26;103315.13;;;4.44;85.61
72612;BME280;60655;52.182;4.474;2023-02-28T08:29:27;103314.63;;;4.39;84.75
72612;BME280;60655;52.182;4.474;2023-02-28T08:31:28;103307.91;;;4.35;85.85
72612;BME280;60655;52.182;4.474;2023-02-28T08:33:29;103318.59;;;4.45;85.67
72612;BME280;60655;52.182;4.474;2023-02-28T08:35:31;103326.09;;;4.38;85.67
72612;BME280;60655;52.182;4.474;2023-02-28T08:37:32;103309.59;;;4.36;85.15
72612;BME280;60655;52.182;4.474;2023-02-28T08:39:35;103297.94;;;4.51;85.22
72612;BME280;60655;52.182;4.474;2023-02-28T08:41:36;103274.88;;;4.20;85.19
72612;BME280;60655;52.182;4.474;2023-02-28T08:43:38;103319.78;;;4.40;85.08
72612;BME280;60655;52.182;4.474;2023-02-28T08:45:39;103317.59;;;4.34;85.35
72612;BME280;60655;52.182;4.474;2023-02-28T08:47:40;103316.53;;;4.37;85.87
72612;BME280;60655;52.182;4.474;2023-02-28T08:49:42;103311.59;;;4.21;85.57
72612;BME280;60655;52.182;4.474;2023-02-28T08:51:43;103313.91;;;4.37;86.11
72612;BME280;60655;52.182;4.474;2023-02-28T08:53:44;103306.09;;;4.24;86.27
72612;BME280;60655;52.182;4.474;2023-02-28T08:55:46;103314.63;;;4.04;85.94
72612;BME280;60655;52.182;4.474;2023-02-28T08:57:47;103326.44;;;4.33;86.33
72612;BME280;60655;52.182;4.474;2023-02-28T08:59:48;103319.03;;;4.27;85.89
72612;BME280;60655;52.182;4.474;2023-02-28T09:01:49;103282.03;;;4.18;85.81
72612;BME280;60655;52.182;4.474;2023-02-28T09:03:50;103280.75;;;4.34;85.95
72612;BME280;60655;52.182;4.474;2023-02-28T09:05:56;103305.59;;;4.54;85.80
72612;BME280;60655;52.182;4.474;2023-02-28T09:07:57;103315.41;;;4.52;85.35
72612;BME280;60655;52.182;4.474;2023-02-28T09:10:00;103296.69;;;4.33;85.83
72612;BME280;60655;52.182;4.474;2023-02-28T09:12:02;103315.34;;;4.41;86.58
72612;BME280;60655;52.182;4.474;2023-02-28T09:14:03;103306.53;;;4.53;85.76
72612;BME280;60655;52.182;4.474;2023-02-28T09:16:04;103313.78;;;4.38;86.33
72612;BME280;60655;52.182;4.474;2023-02-28T09:18:06;103308.16;;;4.32;85.95
72612;BME280;60655;52.182;4.474;2023-02-28T09:20:08;103311.13;;;4.27;85.89
72612;BME280;60655;52.182;4.474;2023-02-28T09:22:10;103306.72;;;4.39;86.37
72612;BME280;60655;52.182;4.474;2023-02-28T09:24:12;103318.13;;;4.16;86.51
72612;BME280;60655;52.182;4.474;2023-02-28T09:26:17;103302.50;;;4.25;86.39
72612;BME280;60655;52.182;4.474;2023-02-28T09:28:18;103319.94;;;4.50;86.32
72612;BME280;60655;52.182;4.474;2023-02-28T09:30:20;103310.81;;;4.43;86.17
72612;BME280;60655;52.182;4.474;2023-02-28T09:32:21;103299.38;;;4.55;85.35
72612;BME280;60655;52.182;4.474;2023-02-28T09:34:22;103302.72;;;4.57;85.13
72612;BME280;60655;52.182;4.474;2023-02-28T09:36:25;103294.50;;;4.62;84.60
72612;BME280;60655;52.182;4.474;2023-02-28T09:38:26;103302.28;;;4.74;84.37
72612;BME280;60655;52.182;4.474;2023-02-28T09:40:28;103306.44;;;4.66;85.03
72612;BME280;60655;52.182;4.474;2023-02-28T09:42:33;103310.53;;;4.70;85.48
72612;BME280;60655;52.182;4.474;2023-02-28T09:44:39;103312.69;;;4.76;84.47
72612;BME280;60655;52.182;4.474;2023-02-28T09:46:47;103326.84;;;4.97;84.28
72612;BME280;60655;52.182;4.474;2023-02-28T09:48:49;103317.88;;;4.89;84.11
72612;BME280;60655;52.182;4.474;2023-02-28T09:50:55;103314.50;;;4.98;84.06
72612;BME280;60655;52.182;4.474;2023-02-28T09:53:02;103320.88;;;5.06;83.94
72612;BME280;60655;52.182;4.474;2023-02-28T09:55:29;103322.19;;;5.12;84.19
72612;BME280;60655;52.182;4.474;2023-02-28T09:57:37;103321.97;;;5.15;83.91
72612;BME280;60655;52.182;4.474;2023-02-28T09:59:46;103318.34;;;5.05;84.39
72612;BME280;60655;52.182;4.474;2023-02-28T10:03:59;103319.44;;;5.14;83.85
72612;BME280;60655;52.182;4.474;2023-02-28T10:08:25;103320.03;;;5.28;83.40
72612;BME280;60655;52.182;4.474;2023-02-28T10:12:43;103315.00;;;5.36;82.52
72612;BME280;60655;52.182;4.474;2023-02-28T10:14:47;103303.63;;;5.25;80.63
72612;BME280;60655;52.182;4.474;2023-02-28T10:17:11;103323.88;;;5.35;81.28
72612;BME280;60655;52.182;4.474;2023-02-28T10:19:24;103321.09;;;5.26;80.25
72612;BME280;60655;52.182;4.474;2023-02-28T10:21:31;103312.34;;;5.25;81.27
72612;BME280;60655;52.182;4.474;2023-02-28T10:23:35;103318.84;;;5.43;81.48
72612;BME280;60655;52.182;4.474;2023-02-28T10:25:38;103320.72;;;5.53;81.05
72612;BME280;60655;52.182;4.474;2023-02-28T10:27:39;103330.34;;;5.42;80.66
72612;BME280;60655;52.182;4.474;2023-02-28T10:29:43;103319.41;;;5.58;82.23
72612;BME280;60655;52.182;4.474;2023-02-28T10:31:44;103325.41;;;5.60;80.97
72612;BME280;60655;52.182;4.474;2023-02-28T10:33:45;103330.53;;;5.62;80.62
72612;BME280;60655;52.182;4.474;2023-02-28T10:35:46;103320.28;;;5.48;79.87
72612;BME280;60655;52.182;4.474;2023-02-28T10:37:57;103307.09;;;5.48;80.57
72612;BME280;60655;52.182;4.474;2023-02-28T10:39:59;103326.09;;;5.73;80.67
72612;BME280;60655;52.182;4.474;2023-02-28T10:42:00;103326.41;;;5.80;79.37
72612;BME280;60655;52.182;4.474;2023-02-28T10:44:20;103325.72;;;5.89;78.73
72612;BME280;60655;52.182;4.474;2023-02-28T10:46:22;103332.06;;;5.87;78.53
72612;BME280;60655;52.182;4.474;2023-02-28T10:48:32;103322.00;;;5.92;79.29
72612;BME280;60655;52.182;4.474;2023-02-28T10:50:42;103320.78;;;5.96;76.57
72612;BME280;60655;52.182;4.474;2023-02-28T10:52:43;103325.22;;;5.95;78.07
72612;BME280;60655;52.182;4.474;2023-02-28T10:54:44;103322.13;;;5.90;76.70
72612;BME280;60655;52.182;4.474;2023-02-28T10:56:45;103318.06;;;5.75;71.81
72612;BME280;60655;52.182;4.474;2023-02-28T10:58:52;103317.44;;;5.83;73.51
72612;BME280;60655;52.182;4.474;2023-02-28T11:00:53;103317.06;;;5.87;72.87
72612;BME280;60655;52.182;4.474;2023-02-28T11:02:54;103322.59;;;5.84;73.36
72612;BME280;60655;52.182;4.474;2023-02-28T11:04:55;103306.81;;;5.73;72.55
72612;BME280;60655;52.182;4.474;2023-02-28T11:06:58;103309.91;;;5.89;73.14
72612;BME280;60655;52.182;4.474;2023-02-28T11:09:27;103308.09;;;5.78;72.62
72612;BME280;60655;52.182;4.474;2023-02-28T11:11:43;103309.75;;;5.80;72.73
72612;BME280;60655;52.182;4.474;2023-02-28T11:13:46;103294.78;;;5.91;73.55
72612;BME280;60655;52.182;4.474;2023-02-28T11:15:55;103298.38;;;5.90;71.25
72612;BME280;60655;52.182;4.474;2023-02-28T11:18:18;103311.31;;;6.04;68.39
72612;BME280;60655;52.182;4.474;2023-02-28T11:20:23;103297.28;;;6.46;71.47
72612;BME280;60655;52.182;4.474;2023-02-28T11:22:27;103291.56;;;6.61;69.76
72612;BME280;60655;52.182;4.474;2023-02-28T11:24:39;103285.38;;;6.51;69.39
72612;BME280;60655;52.182;4.474;2023-02-28T11:26:45;103280.03;;;6.62;69.02
72612;BME280;60655;52.182;4.474;2023-02-28T11:28:46;103289.03;;;6.81;71.08
72612;BME280;60655;52.182;4.474;2023-02-28T11:31:00;103280.72;;;6.85;69.56
72612;BME280;60655;52.182;4.474;2023-02-28T11:33:21;103289.66;;;6.94;65.98